Time;durP1;ratioP1;P1;durP2;ratioP2;P2;SDS_P1;SDS_P2;PMS_P1;PMS_P2;Temp;Humidity;BMP_temperature;BMP_pressure;BME280_temperature;BME280_humidity;BME280_pressure;Samples;Min_cycle;Max_cycle;Signal;HPM_P1;HPM_P2
2020/12/12 00:02:30;;;;;;;7.17;1.80;;;5.30;99.90;;;;;;5084481;28;20199;-80
2020/12/12 00:05:00;;;;;;;4.40;1.70;;;5.30;99.90;;;;;;5089414;28;20222;-78
2020/12/12 00:07:30;;;;;;;4.77;2.20;;;5.20;99.90;;;;;;5087557;28;20267;-78
2020/12/12 00:10:00;;;;;;;6.47;2.20;;;5.20;99.90;;;;;;5086211;28;20234;-78
2020/12/12 00:12:30;;;;;;;5.10;2.20;;;5.10;99.90;;;;;;5085512;28;20632;-79
2020/12/12 00:15:00;;;;;;;4.13;2.20;;;5.00;99.90;;;;;;5074948;28;20272;-79
2020/12/12 00:17:30;;;;;;;8.13;2.53;;;5.00;99.90;;;;;;5087408;28;20243;-78
2020/12/12 00:20:00;;;;;;;5.70;2.20;;;4.90;99.90;;;;;;5086798;28;20214;-78
2020/12/12 00:22:29;;;;;;;5.90;2.23;;;4.80;99.90;;;;;;5082868;28;20261;-78
2020/12/12 00:25:11;;;;;;;3.70;2.30;;;4.80;99.90;;;;;;5086846;28;20202;-80
2020/12/12 00:27:40;;;;;;;5.33;2.93;;;4.70;99.90;;;;;;5086254;28;20203;-79
2020/12/12 00:30:11;;;;;;;6.40;3.10;;;4.60;99.90;;;;;;5086590;28;20227;-79
2020/12/12 00:32:41;;;;;;;7.60;3.73;;;4.60;99.90;;;;;;5075312;28;20290;-78
2020/12/12 00:35:10;;;;;;;5.63;3.30;;;4.40;99.90;;;;;;5076833;28;20237;-78
2020/12/12 00:37:40;;;;;;;6.20;2.80;;;4.40;99.90;;;;;;5089869;28;20620;-80
2020/12/12 00:40:10;;;;;;;11.87;2.70;;;4.30;99.90;;;;;;5090707;28;20242;-78
2020/12/12 00:42:40;;;;;;;4.03;2.40;;;4.20;99.90;;;;;;5090003;28;20245;-79
2020/12/12 00:45:11;;;;;;;6.93;2.30;;;4.10;99.90;;;;;;5090338;28;20297;-78
2020/12/12 00:47:40;;;;;;;4.70;2.10;;;4.00;99.90;;;;;;5071974;28;20716;-78
2020/12/12 00:50:10;;;;;;;4.13;2.07;;;4.10;99.90;;;;;;5087874;28;20717;-78
2020/12/12 00:52:39;;;;;;;5.03;2.30;;;4.10;99.90;;;;;;5089522;28;20660;-78
2020/12/12 00:55:09;;;;;;;5.43;2.67;;;4.00;99.90;;;;;;5090339;28;20245;-78
2020/12/12 00:57:38;;;;;;;4.43;2.23;;;4.00;99.90;;;;;;5089009;28;20288;-77
2020/12/12 01:00:08;;;;;;;3.67;1.63;;;4.00;99.90;;;;;;5082911;28;20580;-78
2020/12/12 01:02:38;;;;;;;6.10;2.00;;;3.90;99.90;;;;;;5089340;28;20286;-78
2020/12/12 01:05:08;;;;;;;7.63;2.57;;;3.90;99.90;;;;;;5090311;28;20207;-78
2020/12/12 01:07:38;;;;;;;6.10;2.27;;;3.80;99.90;;;;;;5089103;28;20743;-78
2020/12/12 01:10:07;;;;;;;6.20;2.13;;;3.80;99.90;;;;;;5088768;28;20261;-77
2020/12/12 01:12:37;;;;;;;6.57;2.00;;;3.70;99.90;;;;;;5091181;28;20210;-79
2020/12/12 01:15:06;;;;;;;2.43;1.80;;;3.70;99.90;;;;;;5105235;28;20275;-78
2020/12/12 01:17:36;;;;;;;3.63;1.77;;;3.70;99.90;;;;;;5089637;28;20242;-78
2020/12/12 01:20:08;;;;;;;4.83;2.17;;;3.70;99.90;;;;;;5088713;28;20202;-77
2020/12/12 01:22:39;;;;;;;4.47;2.20;;;3.60;99.90;;;;;;5088543;28;20787;-78
2020/12/12 01:25:10;;;;;;;4.50;2.37;;;3.60;99.90;;;;;;5089349;28;20623;-78
2020/12/12 01:27:41;;;;;;;4.27;2.40;;;3.60;99.90;;;;;;5087682;28;20195;-78
2020/12/12 01:30:12;;;;;;;3.07;1.97;;;3.60;99.90;;;;;;5089041;28;20275;-78
2020/12/12 01:32:42;;;;;;;6.50;3.60;;;3.50;99.90;;;;;;5088079;28;20203;-78
2020/12/12 01:35:14;;;;;;;7.23;2.97;;;3.40;99.90;;;;;;5087899;28;20256;-78
2020/12/12 01:37:44;;;;;;;4.57;2.80;;;3.30;99.90;;;;;;5090430;28;20222;-78
2020/12/12 01:40:14;;;;;;;5.67;3.00;;;3.30;99.90;;;;;;5069297;28;20211;-78
2020/12/12 01:42:43;;;;;;;9.80;5.53;;;3.30;99.90;;;;;;5082139;28;20624;-79
2020/12/12 01:45:13;;;;;;;8.67;6.73;;;3.20;99.90;;;;;;5087988;28;20290;-79
2020/12/12 01:47:43;;;;;;;8.07;5.60;;;3.20;99.90;;;;;;5089304;28;20623;-78
2020/12/12 01:50:14;;;;;;;7.50;4.43;;;3.20;99.90;;;;;;5089389;28;20284;-79
2020/12/12 01:52:50;;;;;;;7.90;5.70;;;3.10;99.90;;;;;;5088747;28;20211;-78
2020/12/12 01:55:20;;;;;;;8.60;4.40;;;3.10;99.90;;;;;;5088840;28;20198;-79
2020/12/12 01:57:51;;;;;;;7.20;5.07;;;3.10;99.90;;;;;;5088789;28;20234;-78
2020/12/12 02:00:21;;;;;;;13.43;6.17;;;3.00;99.90;;;;;;5070932;28;20779;-79
2020/12/12 02:02:53;;;;;;;12.03;6.90;;;3.10;99.90;;;;;;5088507;28;20218;-78
2020/12/12 02:05:40;;;;;;;18.30;10.30;;;3.10;99.90;;;;;;5088496;28;20198;-86
2020/12/12 02:08:13;;;;;;;19.37;12.47;;;3.00;99.90;;;;;;5082184;28;20236;-84
2020/12/12 02:10:46;;;;;;;21.20;13.93;;;3.00;99.90;;;;;;5096777;28;20223;-88
2020/12/12 02:13:19;;;;;;;18.20;12.73;;;3.00;99.90;;;;;;5097373;28;20203;-88
2020/12/12 02:15:49;;;;;;;20.20;12.60;;;3.00;99.90;;;;;;5096850;28;20214;-87
2020/12/12 02:18:21;;;;;;;18.67;11.70;;;3.00;99.90;;;;;;5099678;28;20712;-86
2020/12/12 02:20:55;;;;;;;18.80;11.33;;;3.00;99.90;;;;;;5094999;28;20227;-89
2020/12/12 02:23:30;;;;;;;15.07;9.43;;;3.00;99.90;;;;;;5101151;28;20615;-84
2020/12/12 02:26:02;;;;;;;14.07;8.80;;;2.90;99.90;;;;;;5100745;28;20211;-84
2020/12/12 02:44:14;;;;;;;9.80;5.53;;;2.60;99.90;;;;;;5099841;28;20210;-84
2020/12/12 02:46:48;;;;;;;8.70;4.83;;;2.60;99.90;;;;;;5099347;28;20220;-85
2020/12/12 02:49:22;;;;;;;11.80;5.30;;;2.60;99.90;;;;;;5099555;28;20203;-86
2020/12/12 02:51:54;;;;;;;10.23;5.17;;;2.60;99.90;;;;;;5090134;28;20287;-85
2020/12/12 02:54:27;;;;;;;9.50;5.57;;;2.60;99.90;;;;;;5097279;28;20199;-87
2020/12/12 02:56:57;;;;;;;14.93;6.00;;;2.60;99.90;;;;;;5091319;28;20295;-87
2020/12/12 02:59:30;;;;;;;12.40;5.53;;;2.60;99.90;;;;;;5092174;28;20503;-85
2020/12/12 03:02:01;;;;;;;8.77;5.80;;;2.60;99.90;;;;;;5095561;28;20555;-86
2020/12/12 03:04:32;;;;;;;7.87;5.40;;;2.50;99.90;;;;;;5095826;28;20209;-87
2020/12/12 03:07:02;;;;;;;11.20;7.30;;;2.50;99.90;;;;;;5090365;28;20199;-86
2020/12/12 03:09:33;;;;;;;13.30;8.10;;;2.50;99.90;;;;;;5087171;28;20247;-87
2020/12/12 03:12:04;;;;;;;18.33;10.70;;;2.50;99.90;;;;;;5094793;28;20233;-86
2020/12/12 03:14:37;;;;;;;17.03;10.40;;;2.50;99.90;;;;;;5091681;28;20659;-87
2020/12/12 03:17:09;;;;;;;16.17;9.77;;;2.40;99.90;;;;;;5094339;28;20259;-86
2020/12/12 03:19:40;;;;;;;13.70;8.83;;;2.40;99.90;;;;;;5089322;28;20212;-86
2020/12/12 03:22:11;;;;;;;15.47;9.00;;;2.40;99.90;;;;;;5091911;28;20206;-88
2020/12/12 03:24:42;;;;;;;15.53;8.83;;;2.40;99.90;;;;;;5100705;28;20646;-86
2020/12/12 03:27:12;;;;;;;18.50;11.20;;;2.40;99.90;;;;;;5093438;28;20622;-85
2020/12/12 03:29:44;;;;;;;14.97;9.90;;;2.40;99.90;;;;;;5087640;28;20207;-87
2020/12/12 03:32:31;;;;;;;15.97;11.10;;;2.40;99.90;;;;;;5090119;28;20291;-85
2020/12/12 03:35:02;;;;;;;17.17;12.03;;;2.40;99.90;;;;;;5089764;28;20301;-86
2020/12/12 03:37:32;;;;;;;14.20;8.90;;;2.40;99.90;;;;;;5091043;28;20195;-87
2020/12/12 03:40:03;;;;;;;7.70;6.67;;;2.40;99.90;;;;;;5090653;28;20210;-86
2020/12/12 03:42:33;;;;;;;8.67;6.80;;;2.50;99.90;;;;;;5090561;28;20296;-86
2020/12/12 03:45:05;;;;;;;14.40;7.87;;;2.50;99.90;;;;;;5089900;28;20257;-87
2020/12/12 03:47:35;;;;;;;10.93;7.30;;;2.50;99.90;;;;;;5092542;28;20214;-87
2020/12/12 03:50:05;;;;;;;9.67;6.40;;;2.50;99.90;;;;;;5098163;28;20606;-85
2020/12/12 03:52:34;;;;;;;10.77;6.57;;;2.50;99.90;;;;;;5093084;28;20334;-86
2020/12/12 03:55:05;;;;;;;9.83;5.77;;;2.50;99.90;;;;;;5086200;28;20229;-87
2020/12/12 03:57:35;;;;;;;10.23;6.70;;;2.40;99.90;;;;;;5106048;28;20228;-85
2020/12/12 04:00:08;;;;;;;14.37;8.17;;;2.40;99.90;;;;;;5105378;28;20210;-83
2020/12/12 04:02:38;;;;;;;13.13;9.53;;;2.40;99.90;;;;;;5106656;28;20203;-85
2020/12/12 04:05:08;;;;;;;21.60;14.60;;;2.40;99.90;;;;;;5101261;28;20230;-84
2020/12/12 04:07:37;;;;;;;23.20;15.70;;;2.40;99.90;;;;;;5087603;28;20325;-83
2020/12/12 04:10:08;;;;;;;22.85;16.20;;;2.40;99.90;;;;;;4745249;28;10000728;-88
2020/12/12 04:12:39;;;;;;;19.17;12.63;;;2.40;99.90;;;;;;5099328;28;20245;-88
2020/12/12 04:15:11;;;;;;;26.03;18.40;;;2.40;99.90;;;;;;5100307;28;20228;-89
2020/12/12 04:17:42;;;;;;;40.27;25.67;;;2.40;99.90;;;;;;5099022;28;20241;-89
2020/12/12 04:20:14;;;;;;;30.67;21.93;;;2.40;99.90;;;;;;5099932;28;20220;-90
2020/12/12 04:22:45;;;;;;;21.43;15.60;;;2.40;99.90;;;;;;5095333;28;20211;-88
2020/12/12 04:25:16;;;;;;;21.40;13.57;;;2.40;99.90;;;;;;5113815;28;20211;-86
2020/12/12 04:27:46;;;;;;;32.13;21.70;;;2.40;99.90;;;;;;5101960;28;20292;-88
2020/12/12 04:30:18;;;;;;;41.93;28.43;;;2.40;99.90;;;;;;5096737;28;20650;-89
2020/12/12 04:32:49;;;;;;;25.47;17.47;;;2.30;99.90;;;;;;5098145;28;20210;-89
2020/12/12 04:35:21;;;;;;;16.13;12.20;;;2.30;99.90;;;;;;5095384;28;20215;-89
2020/12/12 04:37:53;;;;;;;12.77;8.50;;;2.30;99.90;;;;;;5098021;28;20710;-88
2020/12/12 04:40:28;;;;;;;13.23;6.77;;;2.30;99.90;;;;;;5103856;28;20302;-89
2020/12/12 04:43:01;;;;;;;8.87;6.23;;;2.30;99.90;;;;;;5100489;28;20286;-89
2020/12/12 04:45:35;;;;;;;11.30;6.70;;;2.30;99.90;;;;;;5099999;28;20229;-89
2020/12/12 04:48:06;;;;;;;13.27;6.73;;;2.20;99.90;;;;;;5103229;28;20202;-90
2020/12/12 04:50:37;;;;;;;50.53;26.80;;;2.20;99.90;;;;;;5098314;28;20268;-88
2020/12/12 04:53:15;;;;;;;49.90;27.80;;;2.20;99.90;;;;;;5096768;28;20200;-89
2020/12/12 04:55:48;;;;;;;37.60;21.60;;;2.20;99.90;;;;;;5094362;28;20253;-90
2020/12/12 04:58:23;;;;;;;37.67;19.60;;;2.20;99.90;;;;;;5098170;28;20557;-90
2020/12/12 05:00:57;;;;;;;33.07;16.87;;;2.20;99.90;;;;;;5098792;28;20661;-88
2020/12/12 05:03:33;;;;;;;23.70;13.93;;;2.20;99.90;;;;;;5086639;28;20198;-88
2020/12/12 05:06:04;;;;;;;27.20;13.63;;;2.10;99.90;;;;;;5098078;28;20203;-90
2020/12/12 05:08:35;;;;;;;23.73;10.70;;;2.10;99.90;;;;;;5097714;28;20252;-89
2020/12/12 05:11:06;;;;;;;15.17;7.80;;;2.10;99.90;;;;;;5098690;28;20290;-90
2020/12/12 05:13:37;;;;;;;14.20;7.90;;;2.10;99.90;;;;;;5096949;28;20611;-90
2020/12/12 05:16:10;;;;;;;11.80;7.37;;;2.00;99.90;;;;;;5096716;28;20249;-90
2020/12/12 05:18:42;;;;;;;12.07;7.07;;;2.10;99.90;;;;;;5110232;28;20240;-90
2020/12/12 05:21:14;;;;;;;12.27;7.70;;;2.00;99.90;;;;;;5096038;28;20203;-90
2020/12/12 05:23:45;;;;;;;12.20;7.60;;;2.00;99.90;;;;;;5092305;28;20211;-90
2020/12/12 05:26:21;;;;;;;18.20;9.77;;;2.00;99.90;;;;;;5097409;28;20296;-89
2020/12/12 05:28:55;;;;;;;30.43;15.53;;;2.00;99.90;;;;;;5091275;28;20214;-89
2020/12/12 05:31:28;;;;;;;31.13;18.83;;;2.00;99.90;;;;;;5092116;28;20242;-86
2020/12/12 05:34:15;;;;;;;37.70;19.17;;;2.00;99.90;;;;;;5088539;28;20203;-85
2020/12/12 05:36:48;;;;;;;25.67;14.20;;;2.00;99.90;;;;;;5091554;28;20218;-87
2020/12/12 05:39:19;;;;;;;48.50;10.97;;;2.00;99.90;;;;;;5096850;28;20205;-87
2020/12/12 05:41:54;;;;;;;15.40;8.10;;;2.00;99.90;;;;;;5090430;28;20199;-87
2020/12/12 05:44:25;;;;;;;13.67;7.60;;;2.10;99.90;;;;;;5082264;28;20351;-86
2020/12/12 05:47:01;;;;;;;12.03;7.40;;;2.00;99.90;;;;;;5095284;28;20794;-88
2020/12/12 05:49:36;;;;;;;13.80;7.37;;;2.00;99.90;;;;;;5096405;28;20207;-88
2020/12/12 05:52:06;;;;;;;10.43;6.40;;;2.00;99.90;;;;;;5094598;28;20298;-87
2020/12/12 05:54:38;;;;;;;9.53;5.77;;;2.00;99.90;;;;;;5090979;28;20292;-88
2020/12/12 05:57:11;;;;;;;11.10;6.13;;;2.00;99.90;;;;;;5091410;28;20889;-85
2020/12/12 05:59:41;;;;;;;7.90;5.83;;;1.90;99.90;;;;;;5089747;28;20203;-85
2020/12/12 06:02:16;;;;;;;8.83;5.93;;;1.90;99.90;;;;;;5093743;28;20248;-85
2020/12/12 06:04:52;;;;;;;13.77;6.13;;;1.90;99.90;;;;;;5095406;28;20374;-85
2020/12/12 06:07:32;;;;;;;11.63;6.83;;;1.90;99.90;;;;;;5087419;28;20229;-85
2020/12/12 06:10:05;;;;;;;16.80;9.57;;;1.90;99.90;;;;;;5092124;28;20308;-86
2020/12/12 06:12:35;;;;;;;33.07;17.57;;;1.90;99.90;;;;;;5087952;28;20485;-83
2020/12/12 06:15:05;;;;;;;36.90;18.97;;;1.90;99.90;;;;;;5088735;28;20230;-83
2020/12/12 06:17:47;;;;;;;24.73;13.80;;;1.80;99.90;;;;;;5087315;28;20211;-83
2020/12/12 06:20:20;;;;;;;15.17;10.00;;;1.80;99.90;;;;;;5088450;28;20234;-84
2020/12/12 06:22:54;;;;;;;15.23;9.47;;;1.70;99.90;;;;;;5085111;28;20206;-82
2020/12/12 06:25:27;;;;;;;13.73;8.07;;;1.70;99.90;;;;;;5084874;28;20231;-84
2020/12/12 06:27:57;;;;;;;8.37;6.70;;;1.70;99.90;;;;;;5088608;28;20203;-83
2020/12/12 06:30:28;;;;;;;11.33;6.63;;;1.70;99.90;;;;;;5087746;28;20238;-84
2020/12/12 06:33:04;;;;;;;9.20;6.13;;;1.70;99.90;;;;;;5087279;28;20233;-84
2020/12/12 06:35:35;;;;;;;9.93;6.40;;;1.60;99.90;;;;;;5078630;28;20202;-86
2020/12/12 06:38:25;;;;;;;11.93;6.60;;;1.60;99.90;;;;;;5090521;28;20214;-86
2020/12/12 06:40:57;;;;;;;10.13;6.37;;;1.60;99.90;;;;;;5088895;28;20200;-85
2020/12/12 06:43:32;;;;;;;11.53;6.37;;;1.60;99.90;;;;;;5093222;28;20815;-85
2020/12/12 06:46:05;;;;;;;10.70;5.80;;;1.60;99.90;;;;;;5091049;28;20201;-85
2020/12/12 06:48:37;;;;;;;9.87;6.70;;;1.50;99.90;;;;;;5088467;28;20584;-84
2020/12/12 06:51:08;;;;;;;12.20;6.70;;;1.50;99.90;;;;;;5082610;28;20624;-85
2020/12/12 06:53:38;;;;;;;9.23;6.43;;;1.50;99.90;;;;;;5089672;28;20662;-85
2020/12/12 06:56:14;;;;;;;14.37;7.60;;;1.40;99.90;;;;;;5094227;28;20240;-85
2020/12/12 06:58:46;;;;;;;7.73;6.30;;;1.40;99.90;;;;;;5090249;28;20207;-86
2020/12/12 07:01:30;;;;;;;11.90;7.50;;;1.30;99.90;;;;;;5090396;28;20278;-86
2020/12/12 07:04:06;;;;;;;12.83;7.53;;;1.30;99.90;;;;;;5088665;28;20209;-85
2020/12/12 07:06:37;;;;;;;11.87;8.20;;;1.20;99.90;;;;;;5081252;28;20272;-86
2020/12/12 07:09:10;;;;;;;14.00;8.43;;;1.20;99.90;;;;;;5087171;28;20267;-85
2020/12/12 07:11:40;;;;;;;15.50;8.60;;;1.20;99.90;;;;;;5093947;28;20633;-85
2020/12/12 07:14:10;;;;;;;41.47;9.93;;;1.20;99.90;;;;;;5088995;28;20234;-85
2020/12/12 07:16:41;;;;;;;40.93;9.10;;;1.30;99.90;;;;;;5091101;28;20280;-85
2020/12/12 07:19:16;;;;;;;70.93;9.73;;;1.30;99.90;;;;;;5091282;28;20203;-84
2020/12/12 07:21:47;;;;;;;49.10;8.40;;;1.30;99.90;;;;;;5091119;28;20243;-84
2020/12/12 07:24:17;;;;;;;28.83;7.73;;;1.30;99.90;;;;;;5085725;28;20241;-87
2020/12/12 07:26:48;;;;;;;20.50;7.43;;;1.30;99.90;;;;;;5087576;28;20218;-85
2020/12/12 07:32:54;;;;;;;8.93;6.57;;;1.20;99.90;;;;;;4697675;28;10001237;-85
2020/12/12 07:35:27;;;;;;;10.37;6.60;;;1.20;99.90;;;;;;5090707;28;20617;-84
2020/12/12 07:38:03;;;;;;;14.53;7.20;;;1.20;99.90;;;;;;5089264;28;20276;-85
2020/12/12 07:40:34;;;;;;;12.47;7.03;;;1.10;99.90;;;;;;5093932;28;20208;-85
2020/12/12 07:43:07;;;;;;;9.27;5.90;;;1.10;99.90;;;;;;5105060;28;20600;-86
2020/12/12 07:45:51;;;;;;;14.37;5.37;;;1.00;99.90;;;;;;5090559;28;20230;-86
2020/12/12 07:48:22;;;;;;;11.17;4.93;;;1.00;99.90;;;;;;5093112;28;20199;-86
2020/12/12 07:50:54;;;;;;;46.67;5.93;;;0.90;99.90;;;;;;5100085;28;20202;-86
2020/12/12 07:53:24;;;;;;;82.17;7.57;;;0.90;99.90;;;;;;5101554;28;20578;-85
2020/12/12 07:55:57;;;;;;;130.00;8.80;;;0.80;99.90;;;;;;5093628;28;20729;-85
2020/12/12 07:58:28;;;;;;;222.43;11.93;;;0.70;99.90;;;;;;5093612;28;20257;-85
2020/12/12 08:00:59;;;;;;;230.60;13.03;;;0.80;99.90;;;;;;5090512;28;20259;-85
2020/12/12 08:03:29;;;;;;;244.43;13.83;;;0.70;99.90;;;;;;5091993;28;20308;-86
2020/12/12 08:06:10;;;;;;;159.37;10.10;;;0.80;99.90;;;;;;5092677;28;20222;-86
2020/12/12 08:08:41;;;;;;;135.30;9.23;;;0.70;99.90;;;;;;5090901;28;20212;-85
2020/12/12 08:11:16;;;;;;;92.63;8.00;;;0.70;99.90;;;;;;5080544;28;20248;-86
2020/12/12 08:13:49;;;;;;;148.83;9.37;;;0.80;99.90;;;;;;5089922;28;20218;-88
2020/12/12 08:16:26;;;;;;;92.10;7.70;;;0.70;99.90;;;;;;5090983;28;20203;-85
2020/12/12 08:19:04;;;;;;;60.77;6.07;;;0.70;99.90;;;;;;5090845;28;20324;-84
2020/12/12 08:21:36;;;;;;;46.97;5.73;;;0.70;99.90;;;;;;5092558;28;20211;-88
2020/12/12 08:24:09;;;;;;;30.33;5.17;;;0.60;99.90;;;;;;5090677;28;20228;-86
2020/12/12 08:26:41;;;;;;;34.07;5.00;;;0.50;99.90;;;;;;5102772;28;20328;-86
2020/12/12 08:29:12;;;;;;;41.60;5.50;;;0.50;99.90;;;;;;5099522;28;20263;-87
2020/12/12 08:31:43;;;;;;;39.07;5.10;;;0.40;99.90;;;;;;5092076;28;20292;-86
2020/12/12 08:34:20;;;;;;;18.37;4.70;;;0.40;99.90;;;;;;5092441;28;20199;-86
2020/12/12 08:36:53;;;;;;;37.97;4.33;;;0.40;99.90;;;;;;5095182;28;20230;-86
2020/12/12 08:39:27;;;;;;;64.27;5.10;;;0.30;99.90;;;;;;5091943;28;20241;-86
2020/12/12 08:41:57;;;;;;;77.60;5.50;;;0.30;99.90;;;;;;5090899;28;20199;-86
2020/12/12 08:44:27;;;;;;;50.60;5.97;;;0.30;99.90;;;;;;5090309;28;20615;-86
2020/12/12 08:47:16;;;;;;;67.67;4.37;;;0.30;99.90;;;;;;5082856;28;20231;-87
2020/12/12 08:49:56;;;;;;;80.13;8.10;;;0.40;99.90;;;;;;5090346;28;20216;-87
2020/12/12 08:52:29;;;;;;;49.77;3.93;;;0.40;99.90;;;;;;5091554;28;20696;-87
2020/12/12 08:55:00;;;;;;;24.30;3.67;;;0.30;99.90;;;;;;5092473;28;20239;-86
2020/12/12 08:57:30;;;;;;;30.80;3.40;;;0.30;99.90;;;;;;5093573;28;20674;-86
2020/12/12 09:00:00;;;;;;;15.27;2.90;;;0.20;99.90;;;;;;5095633;28;20233;-87
2020/12/12 09:02:30;;;;;;;3.43;2.07;;;0.30;99.90;;;;;;5093620;28;20270;-86
2020/12/12 09:05:11;;;;;;;2.73;2.13;;;0.20;99.90;;;;;;5096442;28;20321;-86
2020/12/12 09:08:14;;;;;;;3.17;2.30;;;0.20;99.90;;;;;;5089615;28;20195;-86
2020/12/12 09:10:45;;;;;;;2.90;2.50;;;0.10;99.90;;;;;;5095003;28;20252;-87
2020/12/12 09:13:18;;;;;;;3.73;2.83;;;0.10;99.90;;;;;;5104387;28;20711;-86
2020/12/12 09:15:48;;;;;;;15.50;3.00;;;0.10;99.90;;;;;;5099582;28;20228;-86
2020/12/12 09:18:18;;;;;;;35.80;4.20;;;0.10;99.90;;;;;;5094549;28;20263;-86
2020/12/12 09:20:48;;;;;;;39.60;5.23;;;0.10;99.90;;;;;;5093761;28;20204;-86
2020/12/12 09:23:35;;;;;;;33.00;4.47;;;0.10;99.90;;;;;;5092497;28;20569;-86
2020/12/12 09:26:05;;;;;;;62.93;6.07;;;0.10;99.90;;;;;;5093536;28;20203;-86
2020/12/12 09:28:35;;;;;;;133.83;9.10;;;0.20;99.90;;;;;;5093568;28;20214;-86
2020/12/12 09:31:06;;;;;;;116.30;6.87;;;0.20;99.90;;;;;;5089984;28;20230;-87
2020/12/12 09:33:36;;;;;;;119.07;7.43;;;0.20;99.90;;;;;;5091767;28;20579;-87
2020/12/12 09:36:10;;;;;;;173.67;9.07;;;0.20;99.90;;;;;;5093609;28;20210;-86
2020/12/12 09:38:46;;;;;;;141.53;7.37;;;0.30;99.90;;;;;;5093622;28;20206;-86
2020/12/12 09:41:16;;;;;;;71.40;4.70;;;0.30;99.90;;;;;;5073936;28;20216;-88
2020/12/12 09:43:46;;;;;;;107.60;6.43;;;0.30;99.90;;;;;;5101424;28;20286;-87
2020/12/12 09:46:18;;;;;;;44.13;4.60;;;0.30;99.90;;;;;;5111153;28;20208;-86
2020/12/12 09:48:49;;;;;;;17.83;3.00;;;0.20;99.90;;;;;;5109745;28;20272;-86
2020/12/12 09:51:19;;;;;;;13.53;2.77;;;0.10;99.90;;;;;;5101616;28;20179;-88
2020/12/12 09:53:52;;;;;;;6.80;2.17;;;0.20;99.90;;;;;;5109214;28;20239;-87
2020/12/12 09:56:22;;;;;;;2.83;2.40;;;0.10;99.90;;;;;;5108178;28;20223;-86
2020/12/12 09:58:53;;;;;;;3.20;1.97;;;0.10;99.90;;;;;;5108603;28;20252;-86
2020/12/12 10:01:23;;;;;;;14.00;2.43;;;0.00;99.90;;;;;;5101727;28;20179;-86
2020/12/12 10:03:53;;;;;;;4.73;2.20;;;0.00;99.90;;;;;;5093532;28;20203;-86
2020/12/12 10:06:23;;;;;;;12.77;2.37;;;0.00;99.90;;;;;;5094239;28;20349;-84
2020/12/12 10:08:54;;;;;;;5.40;1.90;;;0.00;99.90;;;;;;5095285;28;20273;-86
2020/12/12 10:11:27;;;;;;;6.03;2.20;;;0.00;99.90;;;;;;5083092;28;20198;-86
2020/12/12 10:13:57;;;;;;;6.20;2.13;;;0.00;99.90;;;;;;5096128;28;20252;-85
2020/12/12 10:16:33;;;;;;;5.87;1.93;;;0.00;99.90;;;;;;5092743;28;20633;-85
2020/12/12 10:19:03;;;;;;;9.60;2.27;;;0.00;99.90;;;;;;5091526;28;20272;-88
2020/12/12 10:21:34;;;;;;;12.07;2.30;;;0.00;99.90;;;;;;5100684;28;20266;-87
2020/12/12 10:24:08;;;;;;;15.63;2.60;;;0.00;99.90;;;;;;5094802;28;20215;-85
2020/12/12 10:26:37;;;;;;;15.83;2.30;;;0.00;99.90;;;;;;5113034;28;20241;-86
2020/12/12 10:29:07;;;;;;;21.20;2.57;;;0.00;99.90;;;;;;5103209;28;20198;-85
2020/12/12 10:31:37;;;;;;;11.10;2.13;;;0.00;99.90;;;;;;5100649;28;20209;-86
2020/12/12 10:34:07;;;;;;;17.80;2.10;;;0.00;99.90;;;;;;5091740;28;20219;-86
2020/12/12 10:36:39;;;;;;;26.00;2.30;;;-0.10;99.90;;;;;;5092354;28;20206;-86
2020/12/12 10:39:14;;;;;;;7.50;1.70;;;-0.10;99.90;;;;;;5091957;28;20902;-86
2020/12/12 10:41:44;;;;;;;9.73;2.23;;;-0.10;99.90;;;;;;5090328;28;20622;-86
2020/12/12 10:44:14;;;;;;;12.73;2.00;;;-0.20;99.90;;;;;;5081807;28;20200;-87
2020/12/12 10:46:44;;;;;;;24.57;2.50;;;-0.10;99.90;;;;;;5092380;28;20205;-89
2020/12/12 10:49:15;;;;;;;9.37;1.97;;;-0.10;99.90;;;;;;5092008;28;20196;-87
2020/12/12 10:51:48;;;;;;;16.93;2.53;;;-0.20;99.90;;;;;;5090622;28;20215;-86
2020/12/12 10:54:25;;;;;;;44.23;2.77;;;-0.20;99.90;;;;;;5090971;28;20246;-85
2020/12/12 10:56:56;;;;;;;67.30;3.80;;;-0.20;99.90;;;;;;5094064;28;20236;-87
2020/12/12 10:59:28;;;;;;;107.97;5.17;;;-0.10;99.90;;;;;;5091800;28;20289;-86
2020/12/12 11:01:59;;;;;;;89.70;7.50;;;0.00;99.90;;;;;;5092511;28;21023;-85
2020/12/12 11:04:32;;;;;;;77.00;3.90;;;-0.10;99.90;;;;;;5092043;28;20208;-87
2020/12/12 11:07:02;;;;;;;83.03;5.83;;;-0.10;99.90;;;;;;5091569;28;20200;-87
2020/12/12 11:09:34;;;;;;;67.07;4.50;;;-0.10;99.90;;;;;;5094062;28;20223;-86
2020/12/12 11:12:04;;;;;;;47.50;4.93;;;-0.10;99.90;;;;;;5089995;28;20242;-86
2020/12/12 11:14:35;;;;;;;100.97;7.37;;;-0.10;99.90;;;;;;5090822;28;20203;-86
2020/12/12 11:17:05;;;;;;;137.80;7.00;;;-0.10;99.90;;;;;;5091036;28;20207;-87
2020/12/12 11:19:35;;;;;;;168.83;8.40;;;0.00;99.90;;;;;;5089911;28;20201;-88
2020/12/12 11:22:07;;;;;;;192.40;9.77;;;0.00;99.90;;;;;;5089851;28;20228;-85
2020/12/12 11:24:39;;;;;;;91.00;5.30;;;0.00;99.90;;;;;;5099391;28;20308;-86
2020/12/12 11:27:11;;;;;;;83.57;5.30;;;0.10;99.90;;;;;;5083359;28;20207;-87
2020/12/12 11:29:42;;;;;;;56.90;3.73;;;0.10;99.90;;;;;;5092088;28;20303;-87
2020/12/12 11:32:12;;;;;;;68.63;5.20;;;0.10;99.90;;;;;;5106365;28;20283;-88
2020/12/12 11:34:45;;;;;;;130.80;7.53;;;0.10;99.90;;;;;;5091022;28;20207;-86
2020/12/12 11:37:42;;;;;;;78.37;4.57;;;0.10;99.90;;;;;;5071080;28;20215;-87
2020/12/12 11:40:18;;;;;;;24.20;3.20;;;0.00;99.90;;;;;;5091256;28;20199;-87
2020/12/12 11:43:16;;;;;;;13.00;2.60;;;0.00;99.90;;;;;;5097447;28;20230;-86
2020/12/12 11:48:35;;;;;;;2.23;1.90;;;-0.10;99.90;;;;;;5091139;28;20210;-87
2020/12/12 11:51:08;;;;;;;2.67;2.10;;;-0.20;99.90;;;;;;5104970;28;20214;-87
2020/12/12 11:53:37;;;;;;;3.97;2.27;;;-0.20;99.90;;;;;;5089680;28;20271;-87
2020/12/12 11:56:08;;;;;;;3.87;1.77;;;-0.20;99.90;;;;;;5091136;28;20271;-88
2020/12/12 11:58:48;;;;;;;16.03;2.20;;;-0.30;99.90;;;;;;5090744;28;20342;-87
2020/12/12 12:01:23;;;;;;;5.47;1.90;;;-0.30;99.90;;;;;;5084717;28;20631;-86
2020/12/12 12:03:54;;;;;;;6.43;2.20;;;-0.30;99.90;;;;;;5089558;28;20208;-87
2020/12/12 12:06:25;;;;;;;22.83;2.47;;;-0.30;99.90;;;;;;5090619;28;20204;-87
2020/12/12 12:11:43;;;;;;;13.43;2.03;;;-0.40;99.90;;;;;;5078834;28;20204;-86
2020/12/12 12:14:13;;;;;;;11.80;2.00;;;-0.40;99.90;;;;;;5095676;28;20229;-86
2020/12/12 12:16:43;;;;;;;6.07;1.70;;;-0.40;99.90;;;;;;5091066;28;20223;-87
2020/12/12 12:19:15;;;;;;;2.30;1.87;;;-0.40;99.90;;;;;;5095069;28;20276;-87
2020/12/12 12:21:50;;;;;;;2.37;1.77;;;-0.50;99.90;;;;;;5098693;28;20600;-87
2020/12/12 12:24:21;;;;;;;2.10;1.83;;;-0.40;99.90;;;;;;5090270;28;20574;-85
2020/12/12 12:26:52;;;;;;;2.97;1.50;;;-0.50;99.90;;;;;;5090764;28;20198;-86
2020/12/12 12:29:22;;;;;;;2.00;1.80;;;-0.50;99.90;;;;;;5087949;28;20236;-87
2020/12/12 12:31:54;;;;;;;1.93;1.67;;;-0.60;99.90;;;;;;5094134;28;20656;-87
2020/12/12 12:34:27;;;;;;;1.47;1.37;;;-0.60;99.90;;;;;;5094965;28;20208;-87
2020/12/12 12:36:57;;;;;;;1.57;1.40;;;-0.60;99.90;;;;;;5103935;28;20260;-87
2020/12/12 12:39:27;;;;;;;2.00;1.53;;;-0.70;99.90;;;;;;5109044;28;20767;-87
2020/12/12 12:41:59;;;;;;;1.60;1.23;;;-0.70;99.90;;;;;;5093618;28;20196;-87
2020/12/12 12:44:30;;;;;;;1.60;1.50;;;-0.70;99.90;;;;;;5094867;28;20195;-87
2020/12/12 12:46:59;;;;;;;1.43;1.30;;;-0.70;99.90;;;;;;5093682;28;20204;-87
2020/12/12 12:49:29;;;;;;;1.57;1.33;;;-0.70;99.90;;;;;;5094121;28;20575;-86
2020/12/12 12:52:00;;;;;;;1.20;1.10;;;-0.70;99.90;;;;;;5101299;28;20659;-87
2020/12/12 12:54:29;;;;;;;1.73;1.50;;;-0.70;99.90;;;;;;5105773;28;20290;-87
2020/12/12 12:57:01;;;;;;;1.33;1.23;;;-0.70;99.90;;;;;;5100062;28;20289;-89
2020/12/12 12:59:31;;;;;;;1.30;1.20;;;-0.80;99.90;;;;;;5094173;28;20223;-87
2020/12/12 13:02:01;;;;;;;1.50;1.40;;;-0.80;99.90;;;;;;5093270;28;20248;-86
2020/12/12 13:04:31;;;;;;;1.73;1.63;;;-0.90;99.90;;;;;;5095891;28;20269;-87
2020/12/12 13:07:01;;;;;;;1.03;1.00;;;-0.90;99.90;;;;;;5095605;28;20592;-85
2020/12/12 13:09:34;;;;;;;1.90;1.40;;;-0.90;99.90;;;;;;5094228;28;20218;-86
2020/12/12 13:12:08;;;;;;;1.67;1.40;;;-0.90;99.90;;;;;;5092564;28;20257;-86
2020/12/12 13:14:38;;;;;;;3.03;1.30;;;-0.90;99.90;;;;;;5088589;28;20208;-88
2020/12/12 13:17:09;;;;;;;2.23;1.70;;;-0.80;99.90;;;;;;5091827;28;20288;-87
2020/12/12 13:19:44;;;;;;;1.47;1.33;;;-0.90;99.90;;;;;;5093403;28;20217;-87
2020/12/12 13:22:15;;;;;;;1.30;1.07;;;-0.90;99.90;;;;;;5073995;28;20772;-86
2020/12/12 13:24:46;;;;;;;1.87;1.47;;;-1.00;99.90;;;;;;5093403;28;20246;-88
2020/12/12 13:27:17;;;;;;;2.13;1.50;;;-1.00;99.90;;;;;;5094847;28;20195;-87
2020/12/12 13:32:36;;;;;;;1.30;1.20;;;-1.00;99.90;;;;;;5085749;28;20252;-88
2020/12/12 13:35:07;;;;;;;1.10;1.00;;;-1.00;99.90;;;;;;5109913;28;20210;-87
2020/12/12 13:37:38;;;;;;;1.50;1.30;;;-1.10;99.90;;;;;;5100361;28;20221;-86
2020/12/12 13:40:08;;;;;;;1.70;1.17;;;-1.10;99.90;;;;;;5095996;28;20208;-86